Time;durP1;ratioP1;P1;durP2;ratioP2;P2;SDS_P1;SDS_P2;PMS_P1;PMS_P2;Temp;Humidity;BMP_temperature;BMP_pressure;BME280_temperature;BME280_humidity;BME280_pressure;Samples;Min_cycle;Max_cycle;Signal;HPM_P1;HPM_P2
2023/09/29 00:00:48;;;;;;;2.72;1.55;;;20.40;69.50;;;;;;5014596;28;20034;-77
2023/09/29 00:03:15;;;;;;;2.88;1.58;;;20.40;69.60;;;;;;4998434;28;20041;-77
2023/09/29 00:05:42;;;;;;;3.25;1.70;;;20.40;69.60;;;;;;4999084;28;20034;-77
2023/09/29 00:08:09;;;;;;;2.47;1.52;;;20.40;69.60;;;;;;5011109;28;20065;-77
2023/09/29 00:10:39;;;;;;;1.95;1.48;;;20.40;69.60;;;;;;4995906;28;20387;-77
2023/09/29 00:13:06;;;;;;;3.42;1.75;;;20.40;69.70;;;;;;4996440;28;20128;-77
2023/09/29 00:15:33;;;;;;;2.90;1.75;;;20.40;69.70;;;;;;4995314;28;20125;-77
2023/09/29 00:18:00;;;;;;;4.72;1.90;;;20.40;69.70;;;;;;4979228;28;20133;-77
2023/09/29 00:20:26;;;;;;;3.38;1.73;;;20.40;69.70;;;;;;4995062;28;20085;-77
2023/09/29 00:22:56;;;;;;;4.30;1.80;;;20.40;69.70;;;;;;4995033;28;20034;-77
2023/09/29 00:25:23;;;;;;;2.28;1.52;;;20.40;69.70;;;;;;4995030;28;20066;-77
2023/09/29 00:27:50;;;;;;;2.78;1.70;;;20.40;69.70;;;;;;4994691;28;20104;-76
2023/09/29 00:30:17;;;;;;;3.50;1.63;;;20.40;69.80;;;;;;4995194;28;20093;-77
2023/09/29 00:32:45;;;;;;;3.28;1.80;;;20.40;69.80;;;;;;4995172;28;20191;-77
2023/09/29 00:35:11;;;;;;;2.60;1.65;;;20.40;69.80;;;;;;4995069;28;20180;-77
2023/09/29 00:37:37;;;;;;;3.47;1.80;;;20.30;69.70;;;;;;4994885;28;20038;-77
2023/09/29 00:40:12;;;;;;;3.45;1.67;;;20.30;69.80;;;;;;4994126;28;20038;-76
2023/09/29 00:42:38;;;;;;;4.70;1.75;;;20.30;69.80;;;;;;4979004;28;20034;-76
2023/09/29 00:45:04;;;;;;;3.60;1.83;;;20.30;69.70;;;;;;4995063;28;20037;-76
2023/09/29 00:47:31;;;;;;;3.30;1.67;;;20.30;69.80;;;;;;4979030;28;20034;-76
2023/09/29 00:49:57;;;;;;;2.22;1.52;;;20.30;69.80;;;;;;5010792;28;20058;-77
2023/09/29 00:52:27;;;;;;;4.53;2.00;;;20.30;69.80;;;;;;4994542;28;20034;-77
2023/09/29 00:54:53;;;;;;;2.42;1.70;;;20.30;69.80;;;;;;5011345;28;20073;-77
2023/09/29 00:57:20;;;;;;;2.47;1.73;;;20.30;69.80;;;;;;4994106;28;20081;-77
2023/09/29 00:59:46;;;;;;;3.17;1.95;;;20.30;69.90;;;;;;4994170;28;20034;-78
2023/09/29 01:02:14;;;;;;;3.75;1.83;;;20.20;69.80;;;;;;4994351;28;20038;-76
2023/09/29 01:04:40;;;;;;;3.00;1.85;;;20.30;69.90;;;;;;4962962;28;20069;-77
2023/09/29 01:07:07;;;;;;;1.80;1.48;;;20.20;69.80;;;;;;5010200;28;20058;-77
2023/09/29 01:09:33;;;;;;;2.75;1.70;;;20.30;69.90;;;;;;5010366;28;20050;-77
2023/09/29 01:12:04;;;;;;;2.25;1.58;;;20.20;69.90;;;;;;4978478;28;20027;-77
2023/09/29 01:14:30;;;;;;;2.25;1.65;;;20.20;69.90;;;;;;4979121;28;20034;-76
2023/09/29 01:16:56;;;;;;;3.40;2.00;;;20.20;69.90;;;;;;4977869;28;20085;-77
2023/09/29 01:19:22;;;;;;;4.63;1.95;;;20.20;69.90;;;;;;4993696;28;20467;-76
2023/09/29 01:21:48;;;;;;;2.63;1.60;;;20.20;70.00;;;;;;4995150;28;20088;-76
2023/09/29 01:24:14;;;;;;;3.97;1.80;;;20.20;70.00;;;;;;4978432;28;20039;-78
2023/09/29 01:26:46;;;;;;;4.57;2.00;;;20.20;70.00;;;;;;4961973;28;20070;-78
2023/09/29 01:29:12;;;;;;;3.47;1.90;;;20.20;70.00;;;;;;4978006;28;20046;-77
2023/09/29 01:31:39;;;;;;;2.35;1.77;;;20.20;70.00;;;;;;4993840;28;20030;-77
2023/09/29 01:34:05;;;;;;;3.28;1.80;;;20.20;70.00;;;;;;4977525;28;20503;-77
2023/09/29 01:36:31;;;;;;;3.00;1.80;;;20.20;70.00;;;;;;5010650;28;20030;-76
2023/09/29 01:38:57;;;;;;;2.67;1.98;;;20.10;70.00;;;;;;4977364;28;20439;-76
2023/09/29 01:41:25;;;;;;;2.30;1.38;;;20.20;70.10;;;;;;4977413;28;20041;-76
2023/09/29 01:43:50;;;;;;;2.45;1.73;;;20.10;70.00;;;;;;4994710;28;20026;-77
2023/09/29 01:46:16;;;;;;;3.33;1.90;;;20.10;70.00;;;;;;4977171;28;20040;-77
2023/09/29 01:48:42;;;;;;;2.42;1.50;;;20.10;70.10;;;;;;4993518;28;20038;-77
2023/09/29 01:51:08;;;;;;;2.75;1.50;;;20.10;70.10;;;;;;4977264;28;20030;-77
2023/09/29 01:53:34;;;;;;;3.80;2.13;;;20.10;70.10;;;;;;4994138;28;20061;-76
2023/09/29 01:56:02;;;;;;;3.00;1.70;;;20.10;70.10;;;;;;4993111;28;20030;-77
2023/09/29 01:58:27;;;;;;;2.85;1.80;;;20.10;70.20;;;;;;5010344;28;20042;-76
2023/09/29 02:00:54;;;;;;;3.17;1.90;;;20.00;70.20;;;;;;5009444;28;20085;-77
2023/09/29 02:03:20;;;;;;;4.00;1.83;;;20.00;70.20;;;;;;4994198;28;20081;-77
2023/09/29 02:05:47;;;;;;;4.25;2.08;;;20.00;70.20;;;;;;5009657;28;20057;-77
2023/09/29 02:08:13;;;;;;;3.58;2.00;;;20.00;70.30;;;;;;5009742;28;20080;-76
2023/09/29 02:10:38;;;;;;;4.03;1.90;;;20.00;70.30;;;;;;4980578;28;20208;-77
2023/09/29 02:13:04;;;;;;;2.03;1.63;;;20.00;70.30;;;;;;5014719;28;20518;-76
2023/09/29 02:15:34;;;;;;;4.03;1.80;;;20.00;70.30;;;;;;4997075;28;20034;-77
2023/09/29 02:18:04;;;;;;;3.10;1.65;;;20.00;70.40;;;;;;5013457;28;20018;-77
2023/09/29 02:20:30;;;;;;;3.45;1.88;;;20.00;70.40;;;;;;4996126;28;20044;-77
2023/09/29 02:23:00;;;;;;;3.30;1.77;;;20.00;70.30;;;;;;4996431;28;20085;-76
2023/09/29 02:25:27;;;;;;;2.15;1.58;;;20.00;70.40;;;;;;5012476;28;20034;-76
2023/09/29 02:27:54;;;;;;;4.60;2.10;;;20.00;70.40;;;;;;4996221;28;20030;-76
2023/09/29 02:30:20;;;;;;;3.75;2.00;;;20.00;70.40;;;;;;4979993;28;20165;-76
2023/09/29 02:32:46;;;;;;;2.17;1.60;;;20.00;70.50;;;;;;4996778;28;20117;-77
2023/09/29 02:35:12;;;;;;;3.60;1.92;;;20.00;70.50;;;;;;4996112;28;20057;-77
2023/09/29 02:37:39;;;;;;;2.67;1.70;;;19.90;70.50;;;;;;5012516;28;20041;-76
2023/09/29 02:40:10;;;;;;;3.22;1.90;;;19.90;70.50;;;;;;4996079;28;20037;-75
2023/09/29 02:42:36;;;;;;;3.25;1.98;;;19.90;70.50;;;;;;4996166;28;20037;-77
2023/09/29 02:45:01;;;;;;;2.88;1.67;;;19.90;70.50;;;;;;4996092;28;20034;-77
2023/09/29 02:47:27;;;;;;;2.67;1.70;;;20.00;70.50;;;;;;4996649;28;20128;-77
2023/09/29 02:49:53;;;;;;;1.92;1.77;;;19.90;70.50;;;;;;4996931;28;20065;-77
2023/09/29 02:52:20;;;;;;;2.80;1.80;;;19.90;70.50;;;;;;5013156;28;20045;-76
2023/09/29 02:54:46;;;;;;;3.22;1.85;;;19.90;70.50;;;;;;4963601;28;20072;-77
2023/09/29 02:57:14;;;;;;;3.38;2.03;;;20.00;70.50;;;;;;4996478;28;20054;-77
2023/09/29 02:59:40;;;;;;;2.78;2.00;;;20.00;70.50;;;;;;4980229;28;20038;-76
2023/09/29 03:02:06;;;;;;;2.03;1.30;;;19.90;70.50;;;;;;4979788;28;20045;-76
2023/09/29 03:04:32;;;;;;;2.50;1.70;;;19.90;70.60;;;;;;4963836;28;20026;-76
2023/09/29 03:06:59;;;;;;;2.78;1.80;;;19.90;70.50;;;;;;4996998;28;20506;-76
2023/09/29 03:09:25;;;;;;;2.53;1.67;;;19.90;70.50;;;;;;4983521;28;20100;-76
2023/09/29 03:11:51;;;;;;;2.95;1.63;;;20.00;70.60;;;;;;5015838;28;20026;-77
2023/09/29 03:14:17;;;;;;;1.80;1.42;;;20.00;70.60;;;;;;4983663;28;20385;-77
2023/09/29 03:16:45;;;;;;;3.58;1.63;;;19.90;70.50;;;;;;5000198;28;20038;-76
2023/09/29 03:19:11;;;;;;;2.92;1.80;;;20.00;70.50;;;;;;4983629;28;20034;-76
2023/09/29 03:21:37;;;;;;;2.83;1.90;;;20.00;70.50;;;;;;5000136;28;20465;-77
2023/09/29 03:24:03;;;;;;;2.47;1.75;;;19.90;70.50;;;;;;4983355;28;20544;-77
2023/09/29 03:26:31;;;;;;;2.35;1.50;;;19.90;70.40;;;;;;5016789;28;20041;-77
2023/09/29 03:28:57;;;;;;;2.40;1.50;;;19.90;70.40;;;;;;4983865;28;20030;-78
2023/09/29 03:31:23;;;;;;;2.38;1.70;;;19.90;70.40;;;;;;4999240;28;20026;-77
2023/09/29 03:33:49;;;;;;;2.55;1.83;;;19.90;70.40;;;;;;4982876;28;20036;-77
2023/09/29 03:36:15;;;;;;;2.38;1.83;;;19.90;70.40;;;;;;4999046;28;20113;-77
2023/09/29 03:38:41;;;;;;;2.22;1.55;;;20.00;70.50;;;;;;4999941;28;20125;-77
2023/09/29 03:41:10;;;;;;;1.73;1.60;;;19.90;70.50;;;;;;4982643;28;20405;-77
2023/09/29 03:43:36;;;;;;;2.30;1.55;;;19.90;70.50;;;;;;4998814;28;20030;-76
2023/09/29 03:46:04;;;;;;;3.05;2.05;;;19.90;70.50;;;;;;4983204;28;20026;-77
2023/09/29 03:48:30;;;;;;;3.83;1.75;;;19.90;70.60;;;;;;5015098;28;20556;-77
2023/09/29 03:50:57;;;;;;;2.50;1.70;;;19.90;70.60;;;;;;4966564;28;20038;-77
2023/09/29 03:53:23;;;;;;;2.10;1.60;;;19.90;70.70;;;;;;4998819;28;20129;-77
2023/09/29 03:55:49;;;;;;;3.33;1.63;;;19.90;70.60;;;;;;5015902;28;20034;-77
2023/09/29 03:58:14;;;;;;;2.33;1.55;;;19.90;70.60;;;;;;4999103;28;20129;-77
2023/09/29 04:00:41;;;;;;;3.03;1.42;;;19.90;70.60;;;;;;4983505;28;20040;-77
2023/09/29 04:03:07;;;;;;;3.00;1.83;;;19.90;70.60;;;;;;4998640;28;20502;-76
2023/09/29 04:05:33;;;;;;;2.03;1.65;;;19.90;70.70;;;;;;4982434;28;20427;-77
2023/09/29 04:07:59;;;;;;;1.77;1.40;;;19.80;70.70;;;;;;4998410;28;20054;-77
2023/09/29 04:10:26;;;;;;;1.88;1.50;;;19.80;70.70;;;;;;4998432;28;20034;-77
2023/09/29 04:12:52;;;;;;;1.77;1.40;;;19.90;70.70;;;;;;4998161;28;20505;-77
2023/09/29 04:15:18;;;;;;;2.50;1.27;;;19.80;70.60;;;;;;4982257;28;20034;-77
2023/09/29 04:17:44;;;;;;;1.42;1.30;;;19.80;70.70;;;;;;4997960;28;20041;-77
2023/09/29 04:20:11;;;;;;;2.47;1.48;;;19.80;70.70;;;;;;5014414;28;20053;-76
2023/09/29 04:22:36;;;;;;;1.52;1.40;;;19.80;70.70;;;;;;4998496;28;20442;-77
2023/09/29 04:25:03;;;;;;;1.73;1.42;;;19.80;70.80;;;;;;4998133;28;20161;-77
2023/09/29 04:27:29;;;;;;;1.98;1.50;;;19.80;70.80;;;;;;5013996;28;20152;-77
2023/09/29 04:29:55;;;;;;;1.58;1.40;;;19.80;70.80;;;;;;4997566;28;20508;-77
2023/09/29 04:32:21;;;;;;;2.13;1.58;;;19.80;70.80;;;;;;4982219;28;20034;-77
2023/09/29 04:34:46;;;;;;;2.85;1.52;;;19.80;70.80;;;;;;5014189;28;20033;-74
2023/09/29 04:37:13;;;;;;;2.55;1.50;;;19.80;70.80;;;;;;4981782;28;20045;-77
2023/09/29 04:39:39;;;;;;;2.13;1.50;;;19.80;70.80;;;;;;4998671;28;20084;-78
2023/09/29 04:42:05;;;;;;;2.75;1.55;;;19.80;70.80;;;;;;4997853;28;20394;-76
2023/09/29 04:44:31;;;;;;;1.30;1.20;;;19.80;70.80;;;;;;4998324;28;20034;-77
2023/09/29 04:46:57;;;;;;;2.65;1.77;;;19.80;70.80;;;;;;4981523;28;20034;-75
2023/09/29 04:49:23;;;;;;;1.55;1.40;;;19.80;70.80;;;;;;4997402;28;20029;-77
2023/09/29 04:51:48;;;;;;;2.33;1.80;;;19.80;70.80;;;;;;4998315;28;20034;-77
2023/09/29 04:54:14;;;;;;;2.20;1.40;;;19.80;70.80;;;;;;4981600;28;20037;-76
2023/09/29 04:56:40;;;;;;;1.88;1.40;;;19.80;70.80;;;;;;4965296;28;20033;-78
2023/09/29 04:59:06;;;;;;;1.33;1.23;;;19.80;70.80;;;;;;4981478;28;20454;-77
2023/09/29 05:01:32;;;;;;;2.78;1.40;;;19.80;70.80;;;;;;4981250;28;20466;-78
2023/09/29 05:03:58;;;;;;;2.35;1.60;;;19.80;70.70;;;;;;4965250;28;20030;-77
2023/09/29 05:06:24;;;;;;;1.70;1.40;;;19.80;70.70;;;;;;4980479;28;20026;-78
2023/09/29 05:08:51;;;;;;;2.47;1.40;;;19.80;70.70;;;;;;4965150;28;20046;-87
2023/09/29 05:11:24;;;;;;;1.67;1.33;;;19.80;70.80;;;;;;4980974;28;20034;-78
2023/09/29 05:13:51;;;;;;;1.30;1.20;;;19.80;70.80;;;;;;4996891;28;20026;-78
2023/09/29 05:16:17;;;;;;;2.17;1.55;;;19.80;70.70;;;;;;4997050;28;20544;-78
2023/09/29 05:18:44;;;;;;;1.95;1.50;;;19.80;70.70;;;;;;4997310;28;20037;-78
2023/09/29 05:21:11;;;;;;;1.65;1.30;;;19.80;70.70;;;;;;4980688;28;20398;-81
2023/09/29 05:23:40;;;;;;;2.00;1.33;;;19.80;70.70;;;;;;4980894;28;20034;-77
2023/09/29 05:26:07;;;;;;;2.30;1.48;;;19.80;70.70;;;;;;4981253;28;20363;-78
2023/09/29 05:28:38;;;;;;;1.95;1.40;;;19.80;70.70;;;;;;5013112;28;20091;-78
2023/09/29 05:31:04;;;;;;;2.25;1.52;;;19.80;70.80;;;;;;5012920;28;20455;-77
2023/09/29 05:33:30;;;;;;;1.67;1.40;;;19.80;70.80;;;;;;4996860;28;20539;-78
2023/09/29 05:35:56;;;;;;;1.60;1.33;;;19.80;70.70;;;;;;4980853;28;20038;-78
2023/09/29 05:38:22;;;;;;;2.33;1.60;;;19.80;70.70;;;;;;4997062;28;20128;-78
2023/09/29 05:40:50;;;;;;;1.95;1.50;;;19.80;70.70;;;;;;5013337;28;20065;-77
2023/09/29 05:43:16;;;;;;;1.48;1.38;;;19.80;70.70;;;;;;4996686;28;20467;-78
2023/09/29 05:45:44;;;;;;;1.30;1.20;;;19.80;70.70;;;;;;4980490;28;20041;-78
2023/09/29 05:48:09;;;;;;;2.22;1.75;;;19.80;70.80;;;;;;5013719;28;20087;-78
2023/09/29 05:50:38;;;;;;;2.38;1.30;;;19.80;70.80;;;;;;4996762;28;20068;-78
2023/09/29 05:53:04;;;;;;;1.77;1.38;;;19.80;70.80;;;;;;5014010;28;20072;-78
2023/09/29 05:55:30;;;;;;;2.03;1.45;;;19.80;70.80;;;;;;4980350;28;20041;-78
2023/09/29 05:57:56;;;;;;;1.23;1.13;;;19.80;71.40;;;;;;4980559;28;20029;-78
2023/09/29 06:00:24;;;;;;;1.50;1.40;;;19.80;70.80;;;;;;4996509;28;20026;-78
2023/09/29 06:02:50;;;;;;;2.20;1.48;;;19.80;70.90;;;;;;4997547;28;20040;-79
2023/09/29 06:05:16;;;;;;;1.30;1.15;;;19.80;70.90;;;;;;5014083;28;20034;-78
2023/09/29 06:07:42;;;;;;;1.55;1.33;;;19.80;70.90;;;;;;4996039;28;20058;-79
2023/09/29 06:10:09;;;;;;;1.60;1.40;;;19.80;70.90;;;;;;4980229;28;20041;-78
2023/09/29 06:12:35;;;;;;;1.70;1.38;;;19.90;71.00;;;;;;4996992;28;20113;-81
2023/09/29 06:15:01;;;;;;;1.83;1.30;;;19.80;70.90;;;;;;4996534;28;20121;-77
2023/09/29 06:17:27;;;;;;;1.88;1.55;;;19.80;70.90;;;;;;5013631;28;20083;-78
2023/09/29 06:19:53;;;;;;;1.70;1.40;;;19.80;71.00;;;;;;4980073;28;20025;-78
2023/09/29 06:22:18;;;;;;;2.05;1.40;;;19.90;71.00;;;;;;4980833;28;20036;-78
2023/09/29 06:24:45;;;;;;;2.58;1.40;;;19.90;71.10;;;;;;4996261;28;20036;-77
2023/09/29 06:27:11;;;;;;;1.77;1.20;;;19.90;71.10;;;;;;4997189;28;20034;-77
2023/09/29 06:29:39;;;;;;;1.80;1.38;;;19.90;71.10;;;;;;5012505;28;20042;-78
2023/09/29 06:32:06;;;;;;;1.63;1.40;;;19.90;71.10;;;;;;4996183;28;20058;-80
2023/09/29 06:34:32;;;;;;;1.95;1.40;;;19.90;71.10;;;;;;5013709;28;20113;-78
2023/09/29 06:36:57;;;;;;;1.30;1.20;;;19.90;71.20;;;;;;5012705;28;20378;-78
2023/09/29 06:39:23;;;;;;;2.00;1.40;;;19.90;71.10;;;;;;4996026;28;20042;-79
2023/09/29 06:41:49;;;;;;;1.95;1.30;;;19.90;71.10;;;;;;4981337;28;20088;-80
2023/09/29 06:44:15;;;;;;;1.75;1.38;;;19.90;71.20;;;;;;5000200;28;20116;-79
2023/09/29 06:46:40;;;;;;;2.70;1.50;;;19.90;71.50;;;;;;4984046;28;20474;-80
2023/09/29 06:49:07;;;;;;;1.77;1.40;;;19.90;71.20;;;;;;4999967;28;20042;-78
2023/09/29 06:51:34;;;;;;;1.60;1.40;;;19.90;71.20;;;;;;5001117;28;20069;-80
2023/09/29 06:54:00;;;;;;;1.92;1.40;;;19.90;71.20;;;;;;5016530;28;20109;-80
2023/09/29 06:56:25;;;;;;;2.85;1.60;;;19.90;71.30;;;;;;4967807;28;20494;-80
2023/09/29 06:58:51;;;;;;;1.40;1.25;;;19.90;71.30;;;;;;4999792;28;20550;-80
2023/09/29 07:01:17;;;;;;;1.50;1.30;;;20.00;71.30;;;;;;5017657;28;20030;-80
2023/09/29 07:03:45;;;;;;;2.03;1.45;;;20.00;71.30;;;;;;5016852;28;20124;-80
2023/09/29 07:06:11;;;;;;;1.30;1.20;;;20.00;71.30;;;;;;4967953;28;20042;-79
2023/09/29 07:08:37;;;;;;;1.58;1.30;;;20.00;71.30;;;;;;4999307;28;20417;-80
2023/09/29 07:11:02;;;;;;;1.98;1.50;;;20.00;71.30;;;;;;4983849;28;20042;-80
2023/09/29 07:13:28;;;;;;;1.58;1.40;;;20.00;71.30;;;;;;5017307;28;20108;-80
2023/09/29 07:15:54;;;;;;;1.67;1.45;;;20.10;71.40;;;;;;4999399;28;20033;-80
2023/09/29 07:18:21;;;;;;;1.77;1.50;;;20.00;71.30;;;;;;4983317;28;20041;-80
2023/09/29 07:20:52;;;;;;;1.35;1.25;;;20.10;71.40;;;;;;4999321;28;20471;-80
2023/09/29 07:23:22;;;;;;;1.65;1.30;;;20.10;71.30;;;;;;5016065;28;20045;-79
2023/09/29 07:25:48;;;;;;;1.42;1.27;;;20.10;71.40;;;;;;4999262;28;20045;-80
2023/09/29 07:28:16;;;;;;;1.40;1.20;;;20.10;71.30;;;;;;4999105;28;20041;-80
2023/09/29 07:30:43;;;;;;;2.03;1.50;;;20.10;71.30;;;;;;5015888;28;20030;-79
2023/09/29 07:33:11;;;;;;;1.83;1.23;;;20.20;71.30;;;;;;4999260;28;20045;-80
2023/09/29 07:35:37;;;;;;;1.98;1.30;;;20.20;71.40;;;;;;5016162;28;20088;-80
2023/09/29 07:38:04;;;;;;;1.85;1.38;;;20.20;71.40;;;;;;4983666;28;20037;-79
2023/09/29 07:40:34;;;;;;;2.30;1.52;;;20.20;71.40;;;;;;4983289;28;20045;-79
2023/09/29 07:43:06;;;;;;;1.52;1.27;;;20.20;71.30;;;;;;4998838;28;20076;-79
2023/09/29 07:45:32;;;;;;;2.33;1.60;;;20.30;71.30;;;;;;5016182;28;20045;-79
2023/09/29 07:47:58;;;;;;;1.42;1.33;;;20.30;71.30;;;;;;4982588;28;20375;-79
2023/09/29 07:50:24;;;;;;;1.48;1.27;;;20.30;71.20;;;;;;5015257;28;20092;-79
2023/09/29 07:52:50;;;;;;;2.17;1.77;;;20.30;71.20;;;;;;5000745;28;20026;-83
2023/09/29 07:55:15;;;;;;;2.83;1.35;;;20.30;71.40;;;;;;4982780;28;20128;-79
2023/09/29 07:57:41;;;;;;;2.22;1.70;;;20.40;71.50;;;;;;4982734;28;20037;-80
2023/09/29 08:00:12;;;;;;;1.40;1.23;;;20.30;71.50;;;;;;4966333;28;20113;-79
2023/09/29 08:02:39;;;;;;;1.63;1.35;;;20.30;71.60;;;;;;4968543;28;20034;-80
2023/09/29 08:05:07;;;;;;;1.88;1.40;;;20.40;71.60;;;;;;4998621;28;20034;-80
2023/09/29 08:07:33;;;;;;;2.05;1.70;;;20.40;71.60;;;;;;5014871;28;20076;-80
2023/09/29 08:09:59;;;;;;;2.40;1.70;;;20.40;71.50;;;;;;4998515;28;20030;-80
2023/09/29 08:12:25;;;;;;;1.45;1.35;;;20.50;71.60;;;;;;4998325;28;20040;-80
2023/09/29 08:14:51;;;;;;;1.83;1.45;;;20.50;71.50;;;;;;4998683;28;20041;-80
2023/09/29 08:17:18;;;;;;;2.88;1.50;;;20.50;71.50;;;;;;4982050;28;20070;-80
2023/09/29 08:19:45;;;;;;;1.40;1.23;;;20.50;71.50;;;;;;4998287;28;20021;-80
2023/09/29 08:22:10;;;;;;;3.05;1.40;;;20.50;71.40;;;;;;4966055;28;20510;-80
2023/09/29 08:24:36;;;;;;;1.30;1.10;;;20.60;71.40;;;;;;4998669;28;20053;-80
2023/09/29 08:27:02;;;;;;;1.40;1.30;;;20.60;71.40;;;;;;4998767;28;20091;-80
2023/09/29 08:29:28;;;;;;;1.58;1.45;;;20.60;71.40;;;;;;5014576;28;20034;-80
2023/09/29 08:31:56;;;;;;;1.77;1.40;;;20.70;71.40;;;;;;5016090;28;20040;-80
2023/09/29 08:34:22;;;;;;;1.67;1.38;;;20.60;71.40;;;;;;4998185;28;20081;-80
2023/09/29 08:36:47;;;;;;;2.65;1.48;;;20.70;71.40;;;;;;5015363;28;20486;-80
2023/09/29 08:39:13;;;;;;;1.60;1.30;;;20.70;71.40;;;;;;5014296;28;20128;-80
2023/09/29 08:42:00;;;;;;;1.73;1.33;;;20.70;71.30;;;;;;4981988;28;20034;-80
2023/09/29 08:44:29;;;;;;;1.30;1.13;;;20.80;71.40;;;;;;4998963;28;20106;-79
2023/09/29 08:47:04;;;;;;;1.65;1.27;;;20.80;71.30;;;;;;4998183;28;20052;-80
2023/09/29 08:49:30;;;;;;;1.75;1.42;;;20.80;71.30;;;;;;4998064;28;20065;-80
2023/09/29 08:52:00;;;;;;;2.38;1.42;;;20.90;71.20;;;;;;5014048;28;20034;-81
2023/09/29 08:54:28;;;;;;;1.40;1.30;;;20.90;71.30;;;;;;4997763;28;20482;-80
2023/09/29 08:56:55;;;;;;;1.65;1.42;;;20.90;71.20;;;;;;4997667;28;20125;-81
2023/09/29 08:59:22;;;;;;;1.67;1.25;;;21.00;71.20;;;;;;5014275;28;20116;-80
2023/09/29 09:01:49;;;;;;;1.55;1.20;;;21.00;71.20;;;;;;4997580;28;20467;-79
2023/09/29 09:04:14;;;;;;;1.25;1.10;;;21.00;71.10;;;;;;4997122;28;20100;-80
2023/09/29 09:06:41;;;;;;;1.85;1.40;;;21.10;71.10;;;;;;4997218;28;20033;-80
2023/09/29 09:09:08;;;;;;;2.17;1.40;;;21.10;71.10;;;;;;4981394;28;20190;-80
2023/09/29 09:11:42;;;;;;;1.55;1.20;;;21.20;71.10;;;;;;4965751;28;20369;-81
2023/09/29 09:14:10;;;;;;;1.38;1.25;;;21.20;71.10;;;;;;4997488;28;20080;-81
2023/09/29 09:16:38;;;;;;;1.80;1.50;;;21.20;71.00;;;;;;4997320;28;20486;-79
2023/09/29 09:19:14;;;;;;;1.92;1.48;;;21.30;71.10;;;;;;4997172;28;20129;-82
2023/09/29 09:21:41;;;;;;;1.42;1.30;;;21.30;71.20;;;;;;4997202;28;20417;-80
2023/09/29 09:24:21;;;;;;;1.85;1.27;;;21.40;71.10;;;;;;4997116;28;20030;-80
2023/09/29 09:26:47;;;;;;;1.67;1.27;;;21.40;71.00;;;;;;5014612;28;20108;-80
2023/09/29 09:29:16;;;;;;;1.92;1.30;;;21.50;70.90;;;;;;4996899;28;20040;-80
2023/09/29 09:31:46;;;;;;;1.15;1.05;;;21.50;70.80;;;;;;4997177;28;20026;-80
2023/09/29 09:34:13;;;;;;;1.48;1.30;;;21.50;70.80;;;;;;4981104;28;20038;-80
2023/09/29 09:36:52;;;;;;;1.65;1.25;;;21.60;70.70;;;;;;4980666;28;20098;-80
2023/09/29 09:39:24;;;;;;;1.88;1.42;;;21.60;70.60;;;;;;5014202;28;20033;-75
2023/09/29 09:41:55;;;;;;;1.70;1.40;;;21.70;70.50;;;;;;4996857;28;20038;-78
2023/09/29 09:44:22;;;;;;;1.42;1.23;;;21.70;70.50;;;;;;4997378;28;20058;-78
2023/09/29 09:47:00;;;;;;;2.03;1.33;;;21.80;70.40;;;;;;5012793;28;20084;-78
2023/09/29 09:49:36;;;;;;;1.63;1.27;;;21.90;70.50;;;;;;4996660;28;20065;-79
2023/09/29 09:52:07;;;;;;;3.17;1.60;;;21.90;70.50;;;;;;5013998;28;20038;-80
2023/09/29 09:54:40;;;;;;;1.60;1.20;;;21.90;70.50;;;;;;5012861;28;20037;-79
2023/09/29 09:57:10;;;;;;;1.65;1.17;;;22.00;70.40;;;;;;4996567;28;20106;-80
2023/09/29 09:59:36;;;;;;;1.63;1.20;;;22.00;70.40;;;;;;5014510;28;20058;-79
2023/09/29 10:02:06;;;;;;;2.03;1.40;;;22.10;70.30;;;;;;4980438;28;20072;-80
2023/09/29 10:04:35;;;;;;;1.52;1.30;;;22.10;70.30;;;;;;4996512;28;20455;-80
2023/09/29 10:07:04;;;;;;;1.83;1.38;;;22.10;70.20;;;;;;5013843;28;20084;-79
2023/09/29 10:09:43;;;;;;;1.52;1.30;;;22.20;70.20;;;;;;5013964;28;20030;-79
2023/09/29 10:12:22;;;;;;;1.30;1.20;;;22.20;70.20;;;;;;4996689;28;20025;-81
2023/09/29 10:14:48;;;;;;;1.73;1.27;;;22.30;70.20;;;;;;4996505;28;20037;-79
2023/09/29 10:17:13;;;;;;;2.28;1.40;;;22.30;70.10;;;;;;4979810;28;20037;-81
2023/09/29 10:19:39;;;;;;;1.67;1.38;;;22.30;70.10;;;;;;4996160;28;20508;-80
2023/09/29 10:22:08;;;;;;;2.55;1.50;;;22.40;70.10;;;;;;4980446;28;20041;-82
2023/09/29 10:24:35;;;;;;;2.55;1.30;;;22.40;70.10;;;;;;4980167;28;20030;-79
2023/09/29 10:27:04;;;;;;;1.52;1.30;;;22.40;70.00;;;;;;4996519;28;20065;-81
2023/09/29 10:29:35;;;;;;;1.60;1.30;;;22.40;70.00;;;;;;4980238;28;20128;-80
2023/09/29 10:32:10;;;;;;;2.83;1.60;;;22.50;70.00;;;;;;4996448;28;20033;-79
2023/09/29 10:34:37;;;;;;;1.75;1.30;;;22.50;70.00;;;;;;4979672;28;20386;-79
2023/09/29 10:37:03;;;;;;;2.33;1.30;;;22.60;69.90;;;;;;4995992;28;20030;-80
2023/09/29 10:39:29;;;;;;;2.13;1.20;;;22.60;70.40;;;;;;5012159;28;20034;-79
2023/09/29 10:42:04;;;;;;;2.30;1.38;;;22.60;69.80;;;;;;4995830;28;20042;-79
2023/09/29 10:44:30;;;;;;;2.70;1.38;;;22.60;69.80;;;;;;4997643;28;20037;-79
2023/09/29 10:46:56;;;;;;;2.35;1.42;;;22.70;69.70;;;;;;4995974;28;20419;-80
2023/09/29 10:49:32;;;;;;;1.83;1.20;;;22.70;69.70;;;;;;4979634;28;20065;-80
2023/09/29 10:51:57;;;;;;;1.98;1.30;;;22.80;69.80;;;;;;4996055;28;20033;-80
2023/09/29 10:54:24;;;;;;;1.77;1.17;;;22.80;69.70;;;;;;4980030;28;20045;-80
2023/09/29 10:56:50;;;;;;;1.33;1.20;;;22.80;69.70;;;;;;5012539;28;20030;-79
2023/09/29 10:59:15;;;;;;;2.17;1.40;;;22.80;69.60;;;;;;4996159;28;20132;-79
2023/09/29 11:01:44;;;;;;;1.20;1.10;;;22.80;69.60;;;;;;4995743;28;20034;-79
2023/09/29 11:04:10;;;;;;;1.40;1.30;;;22.90;69.70;;;;;;4980090;28;20041;-78
2023/09/29 11:06:52;;;;;;;1.30;1.20;;;22.90;69.60;;;;;;4996050;28;20132;-79
2023/09/29 11:09:21;;;;;;;1.58;1.15;;;23.00;69.70;;;;;;4995748;28;20053;-79
2023/09/29 11:11:48;;;;;;;1.92;1.27;;;23.00;69.60;;;;;;4980301;28;20033;-79
2023/09/29 11:14:13;;;;;;;1.80;1.33;;;23.00;69.60;;;;;;4995875;28;20049;-78
2023/09/29 11:16:39;;;;;;;2.45;1.48;;;23.00;69.60;;;;;;4995666;28;20038;-79
2023/09/29 11:19:14;;;;;;;2.58;1.20;;;23.00;69.60;;;;;;4995784;28;20034;-79
2023/09/29 11:21:40;;;;;;;;;;;23.10;69.60;;;;;;4964331;28;20093;-79
2023/09/29 11:24:07;;;;;;;1.20;1.10;;;23.10;69.50;;;;;;5013009;28;19913;-80
2023/09/29 11:26:33;;;;;;;1.85;1.30;;;23.10;69.40;;;;;;5012212;28;20485;-79
2023/09/29 11:28:59;;;;;;;1.55;1.23;;;23.10;69.40;;;;;;4983280;28;20081;-78
2023/09/29 11:31:25;;;;;;;1.90;1.40;;;23.10;69.40;;;;;;4983150;28;20041;-79
2023/09/29 11:33:51;;;;;;;1.80;1.27;;;23.20;69.50;;;;;;5015722;28;20030;-80
2023/09/29 11:36:21;;;;;;;1.88;1.45;;;23.20;69.40;;;;;;4999293;28;20025;-80
2023/09/29 11:38:47;;;;;;;1.13;1.02;;;23.20;69.40;;;;;;5015476;28;20451;-79
2023/09/29 11:41:15;;;;;;;1.20;1.10;;;23.20;69.40;;;;;;5015716;28;20463;-80
2023/09/29 11:43:42;;;;;;;1.75;1.20;;;23.30;69.40;;;;;;5015424;28;20145;-79
2023/09/29 11:46:08;;;;;;;1.73;1.30;;;23.30;69.40;;;;;;5016336;28;20034;-79
2023/09/29 11:48:35;;;;;;;1.70;1.38;;;23.30;70.00;;;;;;4982909;28;20041;-79
2023/09/29 11:51:01;;;;;;;1.58;1.20;;;23.30;69.40;;;;;;4998952;28;20026;-79
2023/09/29 11:53:27;;;;;;;1.80;1.50;;;23.30;69.40;;;;;;4998932;28;20037;-80
2023/09/29 11:55:54;;;;;;;2.13;1.40;;;23.40;69.30;;;;;;4983399;28;20030;-79
2023/09/29 11:58:20;;;;;;;2.38;1.38;;;23.40;69.30;;;;;;4998756;28;20060;-79
2023/09/29 12:00:47;;;;;;;1.77;1.20;;;23.40;69.20;;;;;;4982549;28;20026;-79
2023/09/29 12:03:13;;;;;;;1.30;1.20;;;23.40;69.20;;;;;;4966519;28;20038;-80
2023/09/29 12:05:44;;;;;;;3.10;1.55;;;23.50;69.30;;;;;;4998530;28;20052;-79
2023/09/29 12:08:10;;;;;;;1.73;1.30;;;23.50;69.20;;;;;;4983057;28;20053;-80
2023/09/29 12:10:36;;;;;;;2.05;1.52;;;23.40;69.10;;;;;;4998201;28;20501;-79
2023/09/29 12:13:04;;;;;;;1.60;1.20;;;23.50;69.20;;;;;;4998709;28;20038;-79
2023/09/29 12:15:31;;;;;;;1.88;1.50;;;23.50;69.20;;;;;;4982698;28;20375;-80
2023/09/29 12:17:57;;;;;;;1.67;1.30;;;23.50;69.10;;;;;;4999214;28;20029;-79
2023/09/29 12:20:24;;;;;;;1.27;1.10;;;23.60;69.20;;;;;;4998294;28;20037;-79
2023/09/29 12:22:51;;;;;;;2.50;1.50;;;23.60;69.20;;;;;;4998107;28;20034;-80
2023/09/29 12:25:16;;;;;;;2.08;1.40;;;23.60;69.20;;;;;;5014427;28;20468;-80
2023/09/29 12:27:43;;;;;;;2.33;1.45;;;23.60;69.20;;;;;;5015405;28;20026;-79
2023/09/29 12:30:12;;;;;;;1.83;1.40;;;23.60;69.20;;;;;;4998178;28;20038;-79
2023/09/29 12:32:42;;;;;;;1.70;1.30;;;23.60;69.20;;;;;;4967401;28;20030;-79
2023/09/29 12:35:14;;;;;;;2.00;1.40;;;23.60;69.20;;;;;;5015445;28;20606;-79
2023/09/29 12:37:42;;;;;;;2.05;1.40;;;23.60;69.20;;;;;;4998356;28;20108;-79
2023/09/29 12:40:09;;;;;;;1.77;1.33;;;23.60;69.20;;;;;;5014757;28;20486;-79
2023/09/29 12:42:35;;;;;;;1.65;1.23;;;23.60;69.20;;;;;;5015491;28;20034;-77
2023/09/29 12:45:01;;;;;;;1.88;1.38;;;23.60;69.20;;;;;;5015515;28;20045;-79
2023/09/29 12:47:27;;;;;;;1.95;1.20;;;23.60;69.30;;;;;;5013895;28;20487;-78